メインページ
METAR-TAF:

METAR-TAF

空港 :

セロ・モレノ国際空港

アントファガスタ, チリ

緯度: 23-26S, 経度: 070-26W, 海抜: 135m

現時点の気象観測

当レポートは20分前の02:00(UTC)に作成
南/南西の風 13kt
気温 15°C
湿度 88%
気圧 1017 hPa
視程10km以上
高度700ftの雲はほとんどない
高度1400ftの曇り

METAR: SCFA 160200Z 20013KT 9999 FEW007 OVC014 15/13 Q1017 NOSIG

時間: 22:20 (02:20 UTC)

予報

当レポートは4時間15分前の22:05(UTC)に作成
予報は16日の 00時(UTC)から 16日の 24時(UTC)まで有効
の風 10kt
視程10km以上
高度1000ftの曇り
16日の 00時(UTC)から 16日の 04時(UTC)まで一時的に
視程: 5000m
高度500ftの雲は散在している
高度800ftの曇り
小霧雨
16日の 16時(UTC)から 16日の 18時(UTC)まで徐々に
高度1500ftの雲は散在している
16日の 20時(UTC)から 16日の 22時(UTC)まで徐々に
視程: 4000m
高度500ftの千切れ雲あり
高度800ftの曇り
小霧雨,

TAF: SCFA 152205Z 1600/1624 19010KT 9999 OVC010 TN14/1610Z TX17/1618Z TEMPO 1600/1604 5000 -DZ SCT005 OVC008 BECMG 1616/1618 SCT015 BECMG 1620/1622 4000 -DZ BKN005 OVC008

4,000以上の空港の気象観測と天気予報(METAR報とTAF報)

利用可能な観測所は地図上に黄色い丸と赤い丸で示す。

丸の上にカーソルを重ねると観測所名を参照できる。

次にクリックすると気象観測と天気予報を参照できる。

マップの切り替え:黒色「×」印の緑ボタンをクリックして拡大、「-」印の緑ボタンをクリックして縮小、緑色の三角印をクリックして隣りの地図に切り替え


METAR-TAF: